sensor_id;sensor_type;location;lat;lon;timestamp;temperature;humidity
22442;DHT22;11388;54.456;9.752;2022-11-04T00:01:47;11.10;99.90
22442;DHT22;11388;54.456;9.752;2022-11-04T00:04:15;11.20;99.90
22442;DHT22;11388;54.456;9.752;2022-11-04T00:06:41;11.10;99.90
22442;DHT22;11388;54.456;9.752;2022-11-04T00:09:08;11.10;99.90
22442;DHT22;11388;54.456;9.752;2022-11-04T00:11:45;11.20;99.90
22442;DHT22;11388;54.456;9.752;2022-11-04T00:14:30;11.20;99.90
22442;DHT22;11388;54.456;9.752;2022-11-04T00:16:57;11.20;99.90
22442;DHT22;11388;54.456;9.752;2022-11-04T00:19:41;11.20;99.90
22442;DHT22;11388;54.456;9.752;2022-11-04T00:22:25;11.30;99.90
22442;DHT22;11388;54.456;9.752;2022-11-04T00:25:09;11.20;99.90
22442;DHT22;11388;54.456;9.752;2022-11-04T00:30:56;11.30;99.90
22442;DHT22;11388;54.456;9.752;2022-11-04T00:33:22;11.20;99.90
22442;DHT22;11388;54.456;9.752;2022-11-04T00:35:53;11.10;99.90
22442;DHT22;11388;54.456;9.752;2022-11-04T00:38:19;11.10;99.90
22442;DHT22;11388;54.456;9.752;2022-11-04T00:40:45;11.20;99.90
22442;DHT22;11388;54.456;9.752;2022-11-04T00:43:11;11.10;99.90
22442;DHT22;11388;54.456;9.752;2022-11-04T00:45:37;11.20;99.90
22442;DHT22;11388;54.456;9.752;2022-11-04T00:48:04;11.10;99.90
22442;DHT22;11388;54.456;9.752;2022-11-04T00:53:33;11.20;99.90
22442;DHT22;11388;54.456;9.752;2022-11-04T00:55:59;11.20;99.90
22442;DHT22;11388;54.456;9.752;2022-11-04T00:58:24;11.20;99.90
22442;DHT22;11388;54.456;9.752;2022-11-04T01:00:50;11.10;99.90
22442;DHT22;11388;54.456;9.752;2022-11-04T01:03:15;11.20;99.90
22442;DHT22;11388;54.456;9.752;2022-11-04T01:05:41;11.20;99.90
22442;DHT22;11388;54.456;9.752;2022-11-04T01:08:07;11.20;99.90
22442;DHT22;11388;54.456;9.752;2022-11-04T01:10:34;11.30;99.90
22442;DHT22;11388;54.456;9.752;2022-11-04T01:13:01;11.20;99.90
22442;DHT22;11388;54.456;9.752;2022-11-04T01:15:26;11.30;99.90
22442;DHT22;11388;54.456;9.752;2022-11-04T01:17:52;11.20;99.90
22442;DHT22;11388;54.456;9.752;2022-11-04T01:20:18;11.20;99.90
22442;DHT22;11388;54.456;9.752;2022-11-04T01:22:43;11.20;99.90
22442;DHT22;11388;54.456;9.752;2022-11-04T01:25:09;11.20;99.90
22442;DHT22;11388;54.456;9.752;2022-11-04T01:27:35;11.20;99.90
22442;DHT22;11388;54.456;9.752;2022-11-04T01:30:00;11.20;99.90
22442;DHT22;11388;54.456;9.752;2022-11-04T01:32:27;11.20;99.90
22442;DHT22;11388;54.456;9.752;2022-11-04T01:34:52;11.20;99.90
22442;DHT22;11388;54.456;9.752;2022-11-04T01:37:18;11.20;99.90
22442;DHT22;11388;54.456;9.752;2022-11-04T01:39:44;11.10;99.90
22442;DHT22;11388;54.456;9.752;2022-11-04T01:42:12;11.10;99.90
22442;DHT22;11388;54.456;9.752;2022-11-04T01:44:51;11.10;99.90
22442;DHT22;11388;54.456;9.752;2022-11-04T01:47:39;11.10;99.90
22442;DHT22;11388;54.456;9.752;2022-11-04T01:50:31;11.10;99.90
22442;DHT22;11388;54.456;9.752;2022-11-04T01:53:08;11.10;99.90
22442;DHT22;11388;54.456;9.752;2022-11-04T01:55:42;11.10;99.90
22442;DHT22;11388;54.456;9.752;2022-11-04T01:58:11;11.10;99.90
22442;DHT22;11388;54.456;9.752;2022-11-04T02:00:39;11.20;99.90
22442;DHT22;11388;54.456;9.752;2022-11-04T02:03:18;11.10;99.90
22442;DHT22;11388;54.456;9.752;2022-11-04T02:05:45;11.10;99.90
22442;DHT22;11388;54.456;9.752;2022-11-04T02:08:14;11.10;99.90
22442;DHT22;11388;54.456;9.752;2022-11-04T02:10:49;11.10;99.90
22442;DHT22;11388;54.456;9.752;2022-11-04T02:13:17;11.10;99.90
22442;DHT22;11388;54.456;9.752;2022-11-04T02:16:22;11.10;99.90
22442;DHT22;11388;54.456;9.752;2022-11-04T02:19:01;11.00;99.90
22442;DHT22;11388;54.456;9.752;2022-11-04T02:24:36;11.00;99.90
22442;DHT22;11388;54.456;9.752;2022-11-04T02:43:26;10.90;99.90
22442;DHT22;11388;54.456;9.752;2022-11-04T02:46:02;11.00;99.90
22442;DHT22;11388;54.456;9.752;2022-11-04T02:56:26;10.90;99.90
22442;DHT22;11388;54.456;9.752;2022-11-04T02:58:56;11.00;99.90
22442;DHT22;11388;54.456;9.752;2022-11-04T03:01:26;11.00;99.90
22442;DHT22;11388;54.456;9.752;2022-11-04T03:04:02;11.00;99.90
22442;DHT22;11388;54.456;9.752;2022-11-04T03:06:30;10.90;99.90
22442;DHT22;11388;54.456;9.752;2022-11-04T03:08:58;11.00;99.90
22442;DHT22;11388;54.456;9.752;2022-11-04T03:11:26;11.00;99.90
22442;DHT22;11388;54.456;9.752;2022-11-04T03:16:36;11.10;99.90
22442;DHT22;11388;54.456;9.752;2022-11-04T03:19:13;10.90;99.90
22442;DHT22;11388;54.456;9.752;2022-11-04T03:22:02;10.90;99.90
22442;DHT22;11388;54.456;9.752;2022-11-04T03:24:29;10.90;99.90
22442;DHT22;11388;54.456;9.752;2022-11-04T03:27:07;10.90;99.90
22442;DHT22;11388;54.456;9.752;2022-11-04T03:29:38;10.90;99.90
22442;DHT22;11388;54.456;9.752;2022-11-04T03:34:36;10.80;99.90
22442;DHT22;11388;54.456;9.752;2022-11-04T03:37:02;10.80;99.90
22442;DHT22;11388;54.456;9.752;2022-11-04T03:39:28;10.80;99.90
22442;DHT22;11388;54.456;9.752;2022-11-04T03:42:10;10.90;99.90
22442;DHT22;11388;54.456;9.752;2022-11-04T03:44:56;10.90;99.90
22442;DHT22;11388;54.456;9.752;2022-11-04T03:47:24;10.80;99.90
22442;DHT22;11388;54.456;9.752;2022-11-04T03:49:54;10.80;99.90
22442;DHT22;11388;54.456;9.752;2022-11-04T03:52:20;10.90;99.90
22442;DHT22;11388;54.456;9.752;2022-11-04T03:54:46;10.90;99.90
22442;DHT22;11388;54.456;9.752;2022-11-04T04:00:08;10.90;99.90
22442;DHT22;11388;54.456;9.752;2022-11-04T04:08:22;11.00;99.90
22442;DHT22;11388;54.456;9.752;2022-11-04T04:11:26;11.00;99.90
22442;DHT22;11388;54.456;9.752;2022-11-04T04:13:58;11.00;99.90
22442;DHT22;11388;54.456;9.752;2022-11-04T04:16:41;11.10;99.90
22442;DHT22;11388;54.456;9.752;2022-11-04T04:19:11;11.00;99.90
22442;DHT22;11388;54.456;9.752;2022-11-04T04:25:03;11.00;99.90
22442;DHT22;11388;54.456;9.752;2022-11-04T04:27:50;11.00;99.90
22442;DHT22;11388;54.456;9.752;2022-11-04T04:30:18;11.00;99.90
22442;DHT22;11388;54.456;9.752;2022-11-04T04:32:56;11.00;99.90
22442;DHT22;11388;54.456;9.752;2022-11-04T04:35:32;11.00;99.90
22442;DHT22;11388;54.456;9.752;2022-11-04T04:38:28;11.00;99.90
22442;DHT22;11388;54.456;9.752;2022-11-04T04:41:22;10.90;99.90
22442;DHT22;11388;54.456;9.752;2022-11-04T04:44:24;11.00;99.90
22442;DHT22;11388;54.456;9.752;2022-11-04T04:47:11;10.90;99.90
22442;DHT22;11388;54.456;9.752;2022-11-04T04:49:57;11.00;99.90
22442;DHT22;11388;54.456;9.752;2022-11-04T04:52:25;11.10;99.90
22442;DHT22;11388;54.456;9.752;2022-11-04T04:54:51;11.10;99.90
22442;DHT22;11388;54.456;9.752;2022-11-04T04:57:17;11.20;99.90
22442;DHT22;11388;54.456;9.752;2022-11-04T04:59:43;11.20;99.90
22442;DHT22;11388;54.456;9.752;2022-11-04T05:02:08;11.20;99.90
22442;DHT22;11388;54.456;9.752;2022-11-04T05:04:34;11.20;99.90
22442;DHT22;11388;54.456;9.752;2022-11-04T05:07:00;11.20;99.90
22442;DHT22;11388;54.456;9.752;2022-11-04T05:09:25;11.10;99.90
22442;DHT22;11388;54.456;9.752;2022-11-04T05:15:12;11.30;99.90
22442;DHT22;11388;54.456;9.752;2022-11-04T05:17:38;11.30;99.90
22442;DHT22;11388;54.456;9.752;2022-11-04T05:20:04;11.20;99.90
22442;DHT22;11388;54.456;9.752;2022-11-04T05:22:29;11.20;99.90
22442;DHT22;11388;54.456;9.752;2022-11-04T05:24:55;11.20;99.90
22442;DHT22;11388;54.456;9.752;2022-11-04T05:27:21;11.20;99.90
22442;DHT22;11388;54.456;9.752;2022-11-04T05:29:46;11.30;99.90
22442;DHT22;11388;54.456;9.752;2022-11-04T05:32:12;11.30;99.90
22442;DHT22;11388;54.456;9.752;2022-11-04T05:34:38;11.40;99.90
22442;DHT22;11388;54.456;9.752;2022-11-04T05:37:03;11.40;99.90
22442;DHT22;11388;54.456;9.752;2022-11-04T05:39:29;11.40;99.90
22442;DHT22;11388;54.456;9.752;2022-11-04T05:41:55;11.40;99.90
22442;DHT22;11388;54.456;9.752;2022-11-04T05:44:20;11.40;99.90
22442;DHT22;11388;54.456;9.752;2022-11-04T05:46:46;11.40;99.90
22442;DHT22;11388;54.456;9.752;2022-11-04T05:49:12;11.40;99.90
22442;DHT22;11388;54.456;9.752;2022-11-04T05:51:37;11.50;99.90
22442;DHT22;11388;54.456;9.752;2022-11-04T05:54:03;11.40;99.90
22442;DHT22;11388;54.456;9.752;2022-11-04T05:56:29;11.40;99.90
22442;DHT22;11388;54.456;9.752;2022-11-04T05:58:55;11.40;99.90
22442;DHT22;11388;54.456;9.752;2022-11-04T06:01:37;11.40;99.90
22442;DHT22;11388;54.456;9.752;2022-11-04T06:04:05;11.30;99.90
22442;DHT22;11388;54.456;9.752;2022-11-04T06:06:33;11.20;99.90
22442;DHT22;11388;54.456;9.752;2022-11-04T06:08:59;11.30;99.90
22442;DHT22;11388;54.456;9.752;2022-11-04T06:11:27;11.30;99.90
22442;DHT22;11388;54.456;9.752;2022-11-04T06:13:54;11.30;99.90
22442;DHT22;11388;54.456;9.752;2022-11-04T06:16:20;11.40;99.90
22442;DHT22;11388;54.456;9.752;2022-11-04T06:18:48;11.30;99.90
22442;DHT22;11388;54.456;9.752;2022-11-04T06:23:43;11.30;99.90
22442;DHT22;11388;54.456;9.752;2022-11-04T06:26:10;11.30;99.90
22442;DHT22;11388;54.456;9.752;2022-11-04T06:28:37;11.20;99.90
22442;DHT22;11388;54.456;9.752;2022-11-04T06:31:06;11.30;99.90
22442;DHT22;11388;54.456;9.752;2022-11-04T06:33:32;11.30;99.90
22442;DHT22;11388;54.456;9.752;2022-11-04T06:35:58;11.30;99.90
22442;DHT22;11388;54.456;9.752;2022-11-04T06:38:25;11.20;99.90
22442;DHT22;11388;54.456;9.752;2022-11-04T06:40:51;11.20;99.90
22442;DHT22;11388;54.456;9.752;2022-11-04T06:43:17;11.20;99.90
22442;DHT22;11388;54.456;9.752;2022-11-04T06:45:43;11.10;99.90
22442;DHT22;11388;54.456;9.752;2022-11-04T06:48:08;11.20;99.90
22442;DHT22;11388;54.456;9.752;2022-11-04T06:50:34;11.10;99.90
22442;DHT22;11388;54.456;9.752;2022-11-04T06:53:00;11.10;99.90
22442;DHT22;11388;54.456;9.752;2022-11-04T06:55:25;11.20;99.90
22442;DHT22;11388;54.456;9.752;2022-11-04T06:57:51;11.10;99.90
22442;DHT22;11388;54.456;9.752;2022-11-04T07:00:17;11.20;99.90
22442;DHT22;11388;54.456;9.752;2022-11-04T07:02:43;11.10;99.90
22442;DHT22;11388;54.456;9.752;2022-11-04T07:05:09;11.10;99.90
22442;DHT22;11388;54.456;9.752;2022-11-04T07:07:35;11.20;99.90
22442;DHT22;11388;54.456;9.752;2022-11-04T07:10:00;11.20;99.90
22442;DHT22;11388;54.456;9.752;2022-11-04T07:12:26;11.30;99.90
22442;DHT22;11388;54.456;9.752;2022-11-04T07:14:52;11.30;99.90
22442;DHT22;11388;54.456;9.752;2022-11-04T07:17:18;11.30;99.90
22442;DHT22;11388;54.456;9.752;2022-11-04T07:19:43;11.20;99.90
22442;DHT22;11388;54.456;9.752;2022-11-04T07:22:09;11.30;99.90
22442;DHT22;11388;54.456;9.752;2022-11-04T07:24:35;11.20;99.90
22442;DHT22;11388;54.456;9.752;2022-11-04T07:27:01;11.10;99.90
22442;DHT22;11388;54.456;9.752;2022-11-04T07:29:27;11.20;99.90
22442;DHT22;11388;54.456;9.752;2022-11-04T07:31:53;11.10;99.90
22442;DHT22;11388;54.456;9.752;2022-11-04T07:34:19;11.00;99.90
22442;DHT22;11388;54.456;9.752;2022-11-04T07:36:44;11.00;99.90
22442;DHT22;11388;54.456;9.752;2022-11-04T07:39:10;11.00;99.90
22442;DHT22;11388;54.456;9.752;2022-11-04T07:41:36;11.10;99.90
22442;DHT22;11388;54.456;9.752;2022-11-04T07:44:02;11.10;99.90
22442;DHT22;11388;54.456;9.752;2022-11-04T07:46:30;11.20;99.90
22442;DHT22;11388;54.456;9.752;2022-11-04T07:48:57;11.10;99.90
22442;DHT22;11388;54.456;9.752;2022-11-04T07:51:33;11.10;99.90
22442;DHT22;11388;54.456;9.752;2022-11-04T07:53:59;11.10;99.90
22442;DHT22;11388;54.456;9.752;2022-11-04T07:56:25;11.10;99.90
22442;DHT22;11388;54.456;9.752;2022-11-04T07:58:51;11.10;99.90
22442;DHT22;11388;54.456;9.752;2022-11-04T08:01:19;11.10;99.90
22442;DHT22;11388;54.456;9.752;2022-11-04T08:03:47;11.20;99.90
22442;DHT22;11388;54.456;9.752;2022-11-04T08:06:16;11.20;99.90
22442;DHT22;11388;54.456;9.752;2022-11-04T08:08:42;11.30;99.90
22442;DHT22;11388;54.456;9.752;2022-11-04T08:11:17;11.40;99.90
22442;DHT22;11388;54.456;9.752;2022-11-04T08:13:44;11.40;99.90
22442;DHT22;11388;54.456;9.752;2022-11-04T08:16:12;11.40;99.90
22442;DHT22;11388;54.456;9.752;2022-11-04T08:18:39;11.30;99.90
22442;DHT22;11388;54.456;9.752;2022-11-04T08:21:05;11.20;99.90
22442;DHT22;11388;54.456;9.752;2022-11-04T08:23:32;11.20;99.90
22442;DHT22;11388;54.456;9.752;2022-11-04T08:25:59;11.30;99.90
22442;DHT22;11388;54.456;9.752;2022-11-04T08:28:25;11.50;99.90
22442;DHT22;11388;54.456;9.752;2022-11-04T08:30:55;11.50;99.90
22442;DHT22;11388;54.456;9.752;2022-11-04T08:33:23;11.50;99.90
22442;DHT22;11388;54.456;9.752;2022-11-04T08:35:49;11.60;99.90
22442;DHT22;11388;54.456;9.752;2022-11-04T08:38:14;11.60;99.90
22442;DHT22;11388;54.456;9.752;2022-11-04T08:40:40;11.50;99.90
22442;DHT22;11388;54.456;9.752;2022-11-04T08:43:06;11.60;99.90
22442;DHT22;11388;54.456;9.752;2022-11-04T08:45:33;11.60;99.90
22442;DHT22;11388;54.456;9.752;2022-11-04T08:48:02;11.60;99.90
22442;DHT22;11388;54.456;9.752;2022-11-04T08:50:29;11.50;99.90
22442;DHT22;11388;54.456;9.752;2022-11-04T08:52:55;11.50;99.90
22442;DHT22;11388;54.456;9.752;2022-11-04T08:55:21;11.40;99.90
22442;DHT22;11388;54.456;9.752;2022-11-04T08:57:46;11.40;99.90
22442;DHT22;11388;54.456;9.752;2022-11-04T09:00:12;11.50;99.90
22442;DHT22;11388;54.456;9.752;2022-11-04T09:02:38;11.50;99.90
22442;DHT22;11388;54.456;9.752;2022-11-04T09:05:05;11.30;99.90
22442;DHT22;11388;54.456;9.752;2022-11-04T09:07:31;11.30;99.90
22442;DHT22;11388;54.456;9.752;2022-11-04T09:09:57;11.20;99.90
22442;DHT22;11388;54.456;9.752;2022-11-04T09:12:22;11.40;99.90
22442;DHT22;11388;54.456;9.752;2022-11-04T09:14:48;11.40;99.90
22442;DHT22;11388;54.456;9.752;2022-11-04T09:17:14;11.40;99.90
22442;DHT22;11388;54.456;9.752;2022-11-04T09:19:39;11.40;99.90
22442;DHT22;11388;54.456;9.752;2022-11-04T09:22:05;11.50;99.90
22442;DHT22;11388;54.456;9.752;2022-11-04T09:24:31;11.50;99.90
22442;DHT22;11388;54.456;9.752;2022-11-04T09:26:56;11.50;99.90
22442;DHT22;11388;54.456;9.752;2022-11-04T09:29:22;11.50;99.90
22442;DHT22;11388;54.456;9.752;2022-11-04T09:31:48;11.60;99.90
22442;DHT22;11388;54.456;9.752;2022-11-04T09:34:15;11.50;99.90
22442;DHT22;11388;54.456;9.752;2022-11-04T09:36:42;11.50;99.90
22442;DHT22;11388;54.456;9.752;2022-11-04T09:39:09;11.40;99.90
22442;DHT22;11388;54.456;9.752;2022-11-04T09:46:44;11.50;99.90
22442;DHT22;11388;54.456;9.752;2022-11-04T09:49:13;11.40;99.90
22442;DHT22;11388;54.456;9.752;2022-11-04T09:51:41;11.50;99.90
22442;DHT22;11388;54.456;9.752;2022-11-04T09:54:21;11.50;99.90
22442;DHT22;11388;54.456;9.752;2022-11-04T09:56:49;11.50;99.90
22442;DHT22;11388;54.456;9.752;2022-11-04T09:59:21;11.60;99.90
22442;DHT22;11388;54.456;9.752;2022-11-04T10:05:17;11.70;99.90
22442;DHT22;11388;54.456;9.752;2022-11-04T10:10:29;11.80;99.90
22442;DHT22;11388;54.456;9.752;2022-11-04T10:21:06;11.90;99.90
22442;DHT22;11388;54.456;9.752;2022-11-04T10:23:47;11.80;99.90
22442;DHT22;11388;54.456;9.752;2022-11-04T10:29:02;12.00;99.90
22442;DHT22;11388;54.456;9.752;2022-11-04T10:31:28;12.00;99.90
22442;DHT22;11388;54.456;9.752;2022-11-04T10:33:59;12.10;99.90
22442;DHT22;11388;54.456;9.752;2022-11-04T10:36:27;12.20;99.90
22442;DHT22;11388;54.456;9.752;2022-11-04T10:38:55;12.20;99.90
22442;DHT22;11388;54.456;9.752;2022-11-04T10:41:34;12.30;99.90
22442;DHT22;11388;54.456;9.752;2022-11-04T10:46:49;12.30;99.90
22442;DHT22;11388;54.456;9.752;2022-11-04T10:49:50;12.40;99.90
22442;DHT22;11388;54.456;9.752;2022-11-04T10:52:19;12.70;99.90
22442;DHT22;11388;54.456;9.752;2022-11-04T10:54:47;12.80;99.90
22442;DHT22;11388;54.456;9.752;2022-11-04T10:57:20;12.90;99.90
22442;DHT22;11388;54.456;9.752;2022-11-04T10:59:56;12.70;99.90
22442;DHT22;11388;54.456;9.752;2022-11-04T11:02:45;12.90;99.90
22442;DHT22;11388;54.456;9.752;2022-11-04T11:07:54;12.80;99.90
22442;DHT22;11388;54.456;9.752;2022-11-04T11:10:28;12.70;99.90
22442;DHT22;11388;54.456;9.752;2022-11-04T11:13:08;12.70;99.90
22442;DHT22;11388;54.456;9.752;2022-11-04T11:15:47;12.80;99.90
22442;DHT22;11388;54.456;9.752;2022-11-04T11:18:15;12.80;99.90
22442;DHT22;11388;54.456;9.752;2022-11-04T11:20:47;12.80;99.90
22442;DHT22;11388;54.456;9.752;2022-11-04T11:23:38;12.80;99.90
22442;DHT22;11388;54.456;9.752;2022-11-04T11:26:07;12.90;99.90
22442;DHT22;11388;54.456;9.752;2022-11-04T11:28:34;12.90;99.90
22442;DHT22;11388;54.456;9.752;2022-11-04T11:31:09;13.00;99.90
22442;DHT22;11388;54.456;9.752;2022-11-04T11:34:13;12.80;99.90
22442;DHT22;11388;54.456;9.752;2022-11-04T11:36:41;12.80;99.90
22442;DHT22;11388;54.456;9.752;2022-11-04T11:42:12;12.90;99.90
22442;DHT22;11388;54.456;9.752;2022-11-04T11:44:55;12.70;99.90
22442;DHT22;11388;54.456;9.752;2022-11-04T11:52:38;12.60;99.90
22442;DHT22;11388;54.456;9.752;2022-11-04T11:55:22;12.50;99.90
22442;DHT22;11388;54.456;9.752;2022-11-04T12:00:46;12.90;99.90
22442;DHT22;11388;54.456;9.752;2022-11-04T12:03:32;13.10;99.90
22442;DHT22;11388;54.456;9.752;2022-11-04T12:20:24;15.80;99.90
22442;DHT22;11388;54.456;9.752;2022-11-04T12:33:58;14.10;99.90
22442;DHT22;11388;54.456;9.752;2022-11-04T12:36:49;13.90;99.90
22442;DHT22;11388;54.456;9.752;2022-11-04T12:47:46;14.00;99.90
22442;DHT22;11388;54.456;9.752;2022-11-04T12:56:05;12.10;99.90
22442;DHT22;11388;54.456;9.752;2022-11-04T13:01:26;11.90;99.90
22442;DHT22;11388;54.456;9.752;2022-11-04T13:04:11;11.80;99.90
22442;DHT22;11388;54.456;9.752;2022-11-04T13:06:45;11.80;99.90
22442;DHT22;11388;54.456;9.752;2022-11-04T13:09:38;11.80;99.90
22442;DHT22;11388;54.456;9.752;2022-11-04T13:17:43;11.80;99.90
22442;DHT22;11388;54.456;9.752;2022-11-04T13:22:44;11.90;99.90
22442;DHT22;11388;54.456;9.752;2022-11-04T13:25:36;12.10;99.90
22442;DHT22;11388;54.456;9.752;2022-11-04T13:28:11;12.10;99.90
22442;DHT22;11388;54.456;9.752;2022-11-04T13:31:07;12.10;99.90
22442;DHT22;11388;54.456;9.752;2022-11-04T13:36:14;12.20;99.90
22442;DHT22;11388;54.456;9.752;2022-11-04T13:39:16;12.20;99.90
22442;DHT22;11388;54.456;9.752;2022-11-04T13:41:55;12.20;99.90
22442;DHT22;11388;54.456;9.752;2022-11-04T13:44:26;12.30;99.90
22442;DHT22;11388;54.456;9.752;2022-11-04T13:46:56;12.10;99.90
22442;DHT22;11388;54.456;9.752;2022-11-04T13:49:28;12.20;99.90
22442;DHT22;11388;54.456;9.752;2022-11-04T13:52:09;12.20;99.90
22442;DHT22;11388;54.456;9.752;2022-11-04T13:54:52;12.30;99.90
22442;DHT22;11388;54.456;9.752;2022-11-04T13:57:30;12.40;99.90
22442;DHT22;11388;54.456;9.752;2022-11-04T14:18:47;12.60;99.90
22442;DHT22;11388;54.456;9.752;2022-11-04T14:21:25;12.70;99.90
22442;DHT22;11388;54.456;9.752;2022-11-04T14:23:52;12.60;99.90
22442;DHT22;11388;54.456;9.752;2022-11-04T14:26:26;12.60;99.90
22442;DHT22;11388;54.456;9.752;2022-11-04T14:32:03;12.80;99.90
22442;DHT22;11388;54.456;9.752;2022-11-04T14:34:36;12.90;99.90
22442;DHT22;11388;54.456;9.752;2022-11-04T14:37:26;12.80;99.90
22442;DHT22;11388;54.456;9.752;2022-11-04T14:40:06;12.70;99.90
22442;DHT22;11388;54.456;9.752;2022-11-04T14:42:45;12.70;99.90
22442;DHT22;11388;54.456;9.752;2022-11-04T14:45:22;12.70;99.90
22442;DHT22;11388;54.456;9.752;2022-11-04T14:48:11;12.70;99.90
22442;DHT22;11388;54.456;9.752;2022-11-04T14:50:52;12.60;99.90
22442;DHT22;11388;54.456;9.752;2022-11-04T14:53:41;12.70;99.90
22442;DHT22;11388;54.456;9.752;2022-11-04T14:56:20;12.80;99.90
22442;DHT22;11388;54.456;9.752;2022-11-04T14:58:56;13.00;99.90
22442;DHT22;11388;54.456;9.752;2022-11-04T15:01:23;12.80;99.90
22442;DHT22;11388;54.456;9.752;2022-11-04T15:03:51;12.80;99.90
22442;DHT22;11388;54.456;9.752;2022-11-04T15:06:26;12.80;99.90
22442;DHT22;11388;54.456;9.752;2022-11-04T15:08:52;12.60;99.90
22442;DHT22;11388;54.456;9.752;2022-11-04T15:11:25;12.50;99.90
22442;DHT22;11388;54.456;9.752;2022-11-04T15:14:23;12.40;99.90
22442;DHT22;11388;54.456;9.752;2022-11-04T15:16:52;12.30;99.90
22442;DHT22;11388;54.456;9.752;2022-11-04T15:19:30;12.20;99.90
22442;DHT22;11388;54.456;9.752;2022-11-04T15:21:57;12.20;99.90
22442;DHT22;11388;54.456;9.752;2022-11-04T15:24:25;12.20;99.90
22442;DHT22;11388;54.456;9.752;2022-11-04T15:26:53;12.00;99.90
22442;DHT22;11388;54.456;9.752;2022-11-04T15:29:21;12.00;99.90
22442;DHT22;11388;54.456;9.752;2022-11-04T15:35:12;11.80;99.90
22442;DHT22;11388;54.456;9.752;2022-11-04T15:37:39;11.70;99.90
22442;DHT22;11388;54.456;9.752;2022-11-04T15:40:08;11.70;99.90
22442;DHT22;11388;54.456;9.752;2022-11-04T15:42:38;11.70;99.90
22442;DHT22;11388;54.456;9.752;2022-11-04T15:45:38;11.70;99.90
22442;DHT22;11388;54.456;9.752;2022-11-04T15:54:30;11.40;99.90
22442;DHT22;11388;54.456;9.752;2022-11-04T15:56:44;11.30;99.90
22442;DHT22;11388;54.456;9.752;2022-11-04T15:59:17;11.30;99.90
22442;DHT22;11388;54.456;9.752;2022-11-04T16:01:49;11.20;99.90
22442;DHT22;11388;54.456;9.752;2022-11-04T16:04:16;11.20;99.90
22442;DHT22;11388;54.456;9.752;2022-11-04T16:06:44;11.20;99.90
22442;DHT22;11388;54.456;9.752;2022-11-04T16:11:38;11.10;99.90
22442;DHT22;11388;54.456;9.752;2022-11-04T16:14:24;11.00;99.90
22442;DHT22;11388;54.456;9.752;2022-11-04T16:16:52;11.10;99.90
22442;DHT22;11388;54.456;9.752;2022-11-04T16:19:24;11.10;99.90
22442;DHT22;11388;54.456;9.752;2022-11-04T16:22:23;11.10;99.90
22442;DHT22;11388;54.456;9.752;2022-11-04T16:24:50;11.20;99.90
22442;DHT22;11388;54.456;9.752;2022-11-04T16:27:19;11.20;99.90
22442;DHT22;11388;54.456;9.752;2022-11-04T16:32:49;11.30;99.90
22442;DHT22;11388;54.456;9.752;2022-11-04T16:35:24;11.30;99.90
22442;DHT22;11388;54.456;9.752;2022-11-04T16:37:54;11.30;99.90
22442;DHT22;11388;54.456;9.752;2022-11-04T16:40:21;11.30;99.90
22442;DHT22;11388;54.456;9.752;2022-11-04T16:42:50;11.30;99.90
22442;DHT22;11388;54.456;9.752;2022-11-04T16:45:24;11.40;99.90
22442;DHT22;11388;54.456;9.752;2022-11-04T16:47:51;11.30;99.90
22442;DHT22;11388;54.456;9.752;2022-11-04T16:50:17;11.30;99.90
22442;DHT22;11388;54.456;9.752;2022-11-04T16:52:43;11.30;99.90
22442;DHT22;11388;54.456;9.752;2022-11-04T16:55:11;11.20;99.90
22442;DHT22;11388;54.456;9.752;2022-11-04T16:57:37;11.20;99.90
22442;DHT22;11388;54.456;9.752;2022-11-04T17:00:04;11.00;99.90
22442;DHT22;11388;54.456;9.752;2022-11-04T17:02:33;10.90;99.90
22442;DHT22;11388;54.456;9.752;2022-11-04T17:05:06;10.90;99.90
22442;DHT22;11388;54.456;9.752;2022-11-04T17:07:33;10.90;99.90
22442;DHT22;11388;54.456;9.752;2022-11-04T17:10:03;10.80;99.90
22442;DHT22;11388;54.456;9.752;2022-11-04T17:12:29;10.80;99.90
22442;DHT22;11388;54.456;9.752;2022-11-04T17:14:54;10.80;99.90
22442;DHT22;11388;54.456;9.752;2022-11-04T17:17:20;10.80;99.90
22442;DHT22;11388;54.456;9.752;2022-11-04T17:19:46;10.80;99.90
22442;DHT22;11388;54.456;9.752;2022-11-04T17:22:11;10.70;99.90
22442;DHT22;11388;54.456;9.752;2022-11-04T17:24:37;10.70;99.90
22442;DHT22;11388;54.456;9.752;2022-11-04T17:27:03;10.70;99.90
22442;DHT22;11388;54.456;9.752;2022-11-04T17:29:29;10.70;99.90
22442;DHT22;11388;54.456;9.752;2022-11-04T17:31:56;10.70;99.90
22442;DHT22;11388;54.456;9.752;2022-11-04T17:34:21;10.60;99.90
22442;DHT22;11388;54.456;9.752;2022-11-04T17:36:52;10.60;99.90
22442;DHT22;11388;54.456;9.752;2022-11-04T17:39:18;10.60;99.90
22442;DHT22;11388;54.456;9.752;2022-11-04T17:41:43;10.60;99.90
22442;DHT22;11388;54.456;9.752;2022-11-04T17:44:28;10.70;99.90
22442;DHT22;11388;54.456;9.752;2022-11-04T17:46:53;10.70;99.90
22442;DHT22;11388;54.456;9.752;2022-11-04T17:49:21;10.70;99.90
22442;DHT22;11388;54.456;9.752;2022-11-04T17:51:53;10.70;99.90
22442;DHT22;11388;54.456;9.752;2022-11-04T17:54:19;10.80;99.90
22442;DHT22;11388;54.456;9.752;2022-11-04T17:56:46;10.80;99.90
22442;DHT22;11388;54.456;9.752;2022-11-04T17:59:12;10.80;99.90
22442;DHT22;11388;54.456;9.752;2022-11-04T18:01:39;10.70;99.90
22442;DHT22;11388;54.456;9.752;2022-11-04T18:04:05;10.70;99.90
22442;DHT22;11388;54.456;9.752;2022-11-04T18:06:33;10.70;99.90
22442;DHT22;11388;54.456;9.752;2022-11-04T18:08:59;10.60;99.90
22442;DHT22;11388;54.456;9.752;2022-11-04T18:11:27;10.60;99.90
22442;DHT22;11388;54.456;9.752;2022-11-04T18:14:13;10.50;99.90
22442;DHT22;11388;54.456;9.752;2022-11-04T18:16:41;10.50;99.90
22442;DHT22;11388;54.456;9.752;2022-11-04T18:19:07;10.40;99.90
22442;DHT22;11388;54.456;9.752;2022-11-04T18:21:32;10.40;99.90
22442;DHT22;11388;54.456;9.752;2022-11-04T18:23:58;10.40;99.90
22442;DHT22;11388;54.456;9.752;2022-11-04T18:26:24;10.40;99.90
22442;DHT22;11388;54.456;9.752;2022-11-04T18:28:50;10.30;99.90
22442;DHT22;11388;54.456;9.752;2022-11-04T18:31:24;10.30;99.90
22442;DHT22;11388;54.456;9.752;2022-11-04T18:33:49;10.30;99.90
22442;DHT22;11388;54.456;9.752;2022-11-04T18:36:15;10.30;99.90
22442;DHT22;11388;54.456;9.752;2022-11-04T18:38:41;10.30;99.90
22442;DHT22;11388;54.456;9.752;2022-11-04T18:44:20;10.30;99.90
22442;DHT22;11388;54.456;9.752;2022-11-04T18:46:47;10.30;99.90
22442;DHT22;11388;54.456;9.752;2022-11-04T18:49:15;10.20;99.90
22442;DHT22;11388;54.456;9.752;2022-11-04T18:51:42;10.10;99.90
22442;DHT22;11388;54.456;9.752;2022-11-04T18:54:09;10.10;99.90
22442;DHT22;11388;54.456;9.752;2022-11-04T18:56:34;10.10;99.90
22442;DHT22;11388;54.456;9.752;2022-11-04T18:59:00;10.00;99.90
22442;DHT22;11388;54.456;9.752;2022-11-04T19:01:33;10.10;99.90